createdAt,value
2018-09-07T00:00:10.034Z,21.53
2018-09-07T00:02:38.429Z,21.27
2018-09-07T00:05:08.027Z,21.93
2018-09-07T00:07:36.163Z,21.37
2018-09-07T00:10:04.390Z,22.60
2018-09-07T00:12:32.486Z,22.73
2018-09-07T00:15:00.583Z,25.43
2018-09-07T00:17:28.794Z,25.77
2018-09-07T00:19:57.146Z,24.83
2018-09-07T00:22:25.258Z,24.93
2018-09-07T00:24:53.377Z,27.37
2018-09-07T00:27:21.478Z,28.20
2018-09-07T00:29:49.568Z,27.50
2018-09-07T00:32:17.662Z,28.00
2018-09-07T00:34:45.761Z,28.33
2018-09-07T00:37:13.867Z,27.30
2018-09-07T00:39:41.954Z,25.70
2018-09-07T00:42:10.058Z,27.40
2018-09-07T00:44:38.151Z,28.67
2018-09-07T00:47:06.259Z,30.53
2018-09-07T00:49:34.356Z,26.80
2018-09-07T00:52:02.470Z,27.67
2018-09-07T00:54:30.552Z,29.30
2018-09-07T00:56:58.653Z,31.47
2018-09-07T00:59:26.740Z,33.43
2018-09-07T01:01:54.845Z,29.20
2018-09-07T01:04:22.938Z,27.87
2018-09-07T01:06:51.042Z,29.13
2018-09-07T01:09:19.143Z,28.97
2018-09-07T01:11:47.247Z,30.07
2018-09-07T01:14:15.342Z,32.03
2018-09-07T01:16:43.434Z,32.53
2018-09-07T01:19:11.547Z,34.70
2018-09-07T01:21:39.643Z,30.40
2018-09-07T01:24:07.746Z,33.10
2018-09-07T01:26:35.847Z,33.33
2018-09-07T01:29:03.965Z,32.90
2018-09-07T01:31:32.066Z,31.65
2018-09-07T01:34:00.172Z,31.03
2018-09-07T01:36:28.270Z,32.97
2018-09-07T01:38:56.366Z,28.67
2018-09-07T01:41:24.465Z,30.63
2018-09-07T01:43:52.555Z,27.57
2018-09-07T01:46:20.642Z,30.40
2018-09-07T01:48:48.796Z,30.70
2018-09-07T01:51:16.878Z,29.70
2018-09-07T01:53:44.983Z,32.37
2018-09-07T01:56:13.073Z,32.67
2018-09-07T01:58:41.177Z,31.53
2018-09-07T02:01:09.284Z,35.43
2018-09-07T02:03:37.666Z,31.27
2018-09-07T02:06:05.760Z,30.17
2018-09-07T02:08:33.858Z,33.93
2018-09-07T02:11:01.959Z,32.33
2018-09-07T02:13:31.386Z,29.50
2018-09-07T02:15:59.486Z,29.50
2018-09-07T02:18:28.454Z,32.37
2018-09-07T02:20:56.539Z,32.87
2018-09-07T02:23:24.717Z,33.03
2018-09-07T02:25:52.759Z,31.97
2018-09-07T02:28:20.891Z,34.10
2018-09-07T02:30:49.162Z,33.20
2018-09-07T02:33:17.261Z,30.80
2018-09-07T02:35:45.362Z,31.83
2018-09-07T02:38:13.462Z,31.30
2018-09-07T02:40:41.791Z,32.17
2018-09-07T02:43:09.883Z,30.27
2018-09-07T02:45:37.975Z,29.57
2018-09-07T02:48:06.079Z,28.23
2018-09-07T02:50:34.162Z,28.60
2018-09-07T02:53:02.262Z,32.17
2018-09-07T02:55:30.347Z,28.63
2018-09-07T02:57:58.438Z,30.77
2018-09-07T03:00:26.539Z,31.60
2018-09-07T03:02:54.638Z,32.43
2018-09-07T03:05:22.717Z,28.70
2018-09-07T03:07:50.825Z,30.80
2018-09-07T03:10:18.919Z,32.37
2018-09-07T03:12:47.018Z,28.93
2018-09-07T03:15:15.114Z,30.00
2018-09-07T03:17:43.195Z,31.20
2018-09-07T03:20:11.313Z,34.60
2018-09-07T03:22:39.511Z,29.73
2018-09-07T03:25:07.684Z,33.00
2018-09-07T03:27:35.799Z,32.60
2018-09-07T03:30:03.906Z,35.77
2018-09-07T03:32:32.182Z,31.97
2018-09-07T03:35:00.579Z,30.37
2018-09-07T03:37:28.670Z,34.30
2018-09-07T03:39:56.770Z,30.20
2018-09-07T03:42:25.226Z,31.03
2018-09-07T03:44:53.474Z,31.30
2018-09-07T03:47:21.566Z,30.00
2018-09-07T03:49:49.657Z,32.30
2018-09-07T03:52:17.994Z,35.30
2018-09-07T03:54:46.091Z,34.60
2018-09-07T03:57:14.182Z,31.87
2018-09-07T03:59:42.274Z,32.63
2018-09-07T04:02:10.372Z,34.53
2018-09-07T04:04:38.648Z,37.53
2018-09-07T04:07:06.793Z,45.93
2018-09-07T04:09:35.103Z,33.23
2018-09-07T04:12:03.206Z,36.30
2018-09-07T04:14:31.339Z,32.53
2018-09-07T04:16:59.438Z,34.93
2018-09-07T04:19:27.546Z,35.80
2018-09-07T04:21:55.661Z,29.83
2018-09-07T04:24:23.761Z,29.47
2018-09-07T04:26:51.846Z,32.63
2018-09-07T04:29:19.950Z,29.73
2018-09-07T04:31:48.350Z,33.57
2018-09-07T04:34:16.503Z,34.17
2018-09-07T04:36:44.597Z,30.23
2018-09-07T04:39:12.699Z,28.97
2018-09-07T04:41:40.790Z,31.83
2018-09-07T04:44:08.894Z,31.90
2018-09-07T04:46:36.984Z,34.67
2018-09-07T04:49:05.087Z,32.57
2018-09-07T04:51:33.214Z,31.37
2018-09-07T04:54:01.323Z,29.43
2018-09-07T04:56:29.480Z,30.00
2018-09-07T04:58:57.587Z,30.87
2018-09-07T05:01:25.681Z,29.97
2018-09-07T05:03:53.824Z,28.90
2018-09-07T05:06:21.924Z,29.73
2018-09-07T05:08:50.045Z,30.30
2018-09-07T05:11:18.131Z,30.57
2018-09-07T05:13:46.226Z,29.40
2018-09-07T05:16:14.350Z,29.33
2018-09-07T05:18:42.459Z,29.10
2018-09-07T05:21:10.561Z,31.40
2018-09-07T05:23:38.658Z,31.00
2018-09-07T05:26:07.168Z,30.93
2018-09-07T05:28:35.288Z,32.43
2018-09-07T05:31:03.582Z,30.00
2018-09-07T05:33:31.754Z,33.40
2018-09-07T05:36:00.138Z,32.63
2018-09-07T05:38:28.253Z,35.83
2018-09-07T05:40:56.406Z,31.23
2018-09-07T05:43:24.597Z,31.90
2018-09-07T05:45:52.702Z,33.20
2018-09-07T05:48:20.815Z,30.90
2018-09-07T05:50:49.790Z,35.53
2018-09-07T05:55:46.532Z,29.80
2018-09-07T05:58:14.622Z,29.93
2018-09-07T06:00:42.895Z,30.80
2018-09-07T06:03:10.986Z,29.83
2018-09-07T06:05:39.087Z,31.27
2018-09-07T06:08:07.179Z,32.77
2018-09-07T06:10:35.273Z,30.40
2018-09-07T06:13:04.011Z,32.23
2018-09-07T06:15:32.664Z,30.40
2018-09-07T06:18:01.494Z,29.77
2018-09-07T06:20:30.316Z,32.93
2018-09-07T06:22:59.687Z,32.73
2018-09-07T06:25:28.040Z,31.63
2018-09-07T06:27:56.846Z,33.07
2018-09-07T06:30:25.106Z,31.10
2018-09-07T06:32:53.636Z,32.63
2018-09-07T06:35:21.942Z,31.20
2018-09-07T06:37:50.905Z,29.30
2018-09-07T06:40:19.207Z,31.10
2018-09-07T06:42:47.562Z,31.80
2018-09-07T06:45:15.943Z,29.07
2018-09-07T06:47:44.282Z,29.60
2018-09-07T06:50:12.942Z,25.83
2018-09-07T06:52:41.335Z,32.30
2018-09-07T06:55:09.746Z,29.33
2018-09-07T06:57:37.868Z,28.53
2018-09-07T07:00:06.181Z,34.20
2018-09-07T07:02:34.636Z,31.40
2018-09-07T07:05:02.814Z,26.37
2018-09-07T07:07:31.414Z,28.47
2018-09-07T07:09:59.856Z,29.03
2018-09-07T07:12:28.127Z,32.20
2018-09-07T07:14:56.410Z,30.17
2018-09-07T07:17:24.814Z,30.20
2018-09-07T07:19:53.209Z,29.10
2018-09-07T07:22:21.451Z,30.13
2018-09-07T07:24:49.823Z,29.30
2018-09-07T07:27:18.472Z,28.17
2018-09-07T07:29:46.788Z,28.80
2018-09-07T07:32:15.169Z,30.63
2018-09-07T07:34:43.355Z,30.00
2018-09-07T07:37:11.567Z,31.40
2018-09-07T07:39:40.857Z,25.13
2018-09-07T07:42:09.087Z,25.40
2018-09-07T07:44:37.431Z,27.13
2018-09-07T07:47:05.742Z,27.70
2018-09-07T07:49:33.899Z,23.40
2018-09-07T07:52:02.100Z,26.70
2018-09-07T07:54:30.413Z,28.60
2018-09-07T07:56:58.780Z,28.53
2018-09-07T07:59:26.946Z,26.03
2018-09-07T08:01:55.191Z,27.50
2018-09-07T08:04:23.435Z,27.63
2018-09-07T08:06:51.543Z,27.93
2018-09-07T08:09:19.711Z,25.43
2018-09-07T08:11:47.838Z,27.63
2018-09-07T08:14:15.940Z,27.77
2018-09-07T08:16:44.040Z,22.90
2018-09-07T08:19:12.393Z,25.20
2018-09-07T08:21:40.549Z,25.03
2018-09-07T08:24:08.642Z,26.50
2018-09-07T08:26:36.837Z,23.07
2018-09-07T08:31:32.948Z,26.20
2018-09-07T08:34:01.026Z,26.00
2018-09-07T08:36:29.121Z,27.20
2018-09-07T10:24:43.250Z,7.00
2018-09-07T10:27:11.344Z,5.10
2018-09-07T10:29:39.458Z,5.27
2018-09-07T11:43:27.922Z,4.40
2018-09-07T11:45:57.399Z,4.00
2018-09-07T12:22:54.969Z,4.77
2018-09-07T12:25:23.760Z,4.80
2018-09-07T12:27:52.131Z,5.03
2018-09-07T12:30:20.737Z,4.17
2018-09-07T12:32:49.108Z,4.27
2018-09-07T12:35:21.214Z,4.00
2018-09-07T12:37:49.614Z,4.20
2018-09-07T12:40:18.077Z,4.30
2018-09-07T12:42:46.559Z,3.60
2018-09-07T12:45:14.771Z,3.60
2018-09-07T12:47:44.259Z,4.57
2018-09-07T12:50:12.443Z,4.10
2018-09-07T12:52:40.772Z,3.83
2018-09-07T12:55:09.353Z,4.03
2018-09-07T12:57:37.896Z,4.43
2018-09-07T13:00:06.437Z,3.60
2018-09-07T13:02:34.687Z,3.57
2018-09-07T13:05:02.795Z,3.20
2018-09-07T13:07:31.291Z,3.30
2018-09-07T13:09:59.532Z,3.07
2018-09-07T13:12:27.629Z,2.90
2018-09-07T13:14:55.730Z,3.40
2018-09-07T13:17:23.810Z,3.13
2018-09-07T13:19:51.955Z,2.87
2018-09-07T13:22:19.994Z,2.80
2018-09-07T13:24:48.090Z,2.50
2018-09-07T13:27:16.202Z,3.37
2018-09-07T13:29:44.294Z,2.70
2018-09-07T13:32:12.386Z,2.63
2018-09-07T13:34:40.602Z,2.50
2018-09-07T13:37:08.694Z,2.30
2018-09-07T13:39:36.790Z,1.97
2018-09-07T13:42:05.902Z,2.70
2018-09-07T13:44:33.997Z,4.93
2018-09-07T13:47:02.078Z,2.57
2018-09-07T13:49:30.178Z,2.20
2018-09-07T13:51:58.266Z,2.00
2018-09-07T13:54:26.367Z,2.10
2018-09-07T13:56:54.458Z,1.80
2018-09-07T13:59:22.563Z,2.13
2018-09-07T14:01:50.654Z,2.40
2018-09-07T14:04:18.756Z,1.93
2018-09-07T14:06:46.851Z,2.50
2018-09-07T14:09:14.971Z,2.47
2018-09-07T14:11:43.049Z,3.30
2018-09-07T14:14:11.138Z,2.40
2018-09-07T14:16:39.234Z,2.40
2018-09-07T14:19:07.327Z,2.40
2018-09-07T14:21:35.432Z,2.83
2018-09-07T14:24:03.904Z,3.70
2018-09-07T14:26:32.163Z,3.90
2018-09-07T14:29:00.246Z,3.83
2018-09-07T14:31:28.359Z,4.87
2018-09-07T14:33:56.450Z,3.70
2018-09-07T14:36:24.580Z,2.57
2018-09-07T14:38:52.622Z,2.57
2018-09-07T14:41:20.725Z,2.97
2018-09-07T14:43:48.822Z,2.57
2018-09-07T14:46:16.919Z,2.90
2018-09-07T14:48:45.061Z,2.70
2018-09-07T14:51:13.106Z,2.50
2018-09-07T14:53:41.231Z,2.67
2018-09-07T14:56:09.899Z,2.80
2018-09-07T14:58:38.058Z,3.17
2018-09-07T15:01:06.256Z,2.83
2018-09-07T15:03:34.498Z,2.70
2018-09-07T15:06:02.895Z,2.80
2018-09-07T15:08:31.030Z,2.03
2018-09-07T15:10:59.446Z,2.60
2018-09-07T15:13:28.486Z,7.70
2018-09-07T15:15:56.758Z,3.37
2018-09-07T15:18:25.038Z,2.83
2018-09-07T15:20:53.551Z,3.00
2018-09-07T15:23:21.851Z,2.57
2018-09-07T15:25:50.035Z,2.73
2018-09-07T15:28:18.199Z,2.73
2018-09-07T15:30:46.354Z,3.20
2018-09-07T15:33:14.772Z,2.70
2018-09-07T15:35:43.066Z,2.70
2018-09-07T15:38:11.259Z,2.70
2018-09-07T15:40:39.786Z,2.70
2018-09-07T15:43:09.353Z,3.63
2018-09-07T15:45:37.842Z,2.90
2018-09-07T15:48:06.071Z,3.17
2018-09-07T15:50:34.426Z,2.75
2018-09-07T15:53:02.525Z,3.40
2018-09-07T15:55:30.693Z,5.70
2018-09-07T15:57:58.802Z,3.50
2018-09-07T16:00:27.098Z,3.40
2018-09-07T16:02:55.199Z,4.00
2018-09-07T16:05:23.563Z,3.50
2018-09-07T16:07:51.682Z,3.00
2018-09-07T16:10:20.159Z,3.30
2018-09-07T16:12:48.383Z,3.60
2018-09-07T16:15:16.729Z,4.03
2018-09-07T16:17:45.404Z,3.60
2018-09-07T16:20:14.643Z,3.33
2018-09-07T16:22:43.380Z,3.43
2018-09-07T16:25:11.470Z,2.80
2018-09-07T16:27:39.595Z,3.23
2018-09-07T16:30:08.991Z,2.80
2018-09-07T16:32:37.090Z,3.30
2018-09-07T16:35:05.252Z,3.30
2018-09-07T16:37:33.654Z,3.20
2018-09-07T16:40:01.971Z,3.67
2018-09-07T16:42:30.181Z,4.40
2018-09-07T16:44:58.398Z,3.87
2018-09-07T16:47:26.674Z,3.50
2018-09-07T16:49:55.658Z,4.03
2018-09-07T16:52:24.594Z,3.40
2018-09-07T16:54:53.336Z,3.00
2018-09-07T16:57:22.199Z,3.00
2018-09-07T16:59:50.534Z,2.93
2018-09-07T17:02:18.659Z,3.10
2018-09-07T17:04:47.305Z,3.40
2018-09-07T17:07:15.623Z,3.83
2018-09-07T17:09:43.862Z,3.67
2018-09-07T17:12:12.054Z,2.93
2018-09-07T17:14:40.934Z,3.00
2018-09-07T17:17:09.473Z,3.10
2018-09-07T17:19:37.860Z,3.57
2018-09-07T17:22:06.106Z,3.53
2018-09-07T17:24:35.774Z,3.30
2018-09-07T17:27:03.958Z,3.40
2018-09-07T17:29:32.245Z,3.40
2018-09-07T17:32:00.419Z,5.10
2018-09-07T17:34:29.422Z,3.67
2018-09-07T17:36:57.530Z,3.23
2018-09-07T17:39:25.628Z,3.45
2018-09-07T17:41:53.727Z,4.83
2018-09-07T17:44:21.825Z,4.15
2018-09-07T17:46:49.910Z,4.37
2018-09-07T17:49:17.999Z,4.93
2018-09-07T17:51:46.126Z,4.33
2018-09-07T17:54:14.219Z,3.40
2018-09-07T17:56:42.310Z,3.50
2018-09-07T17:59:10.391Z,3.33
2018-09-07T18:01:38.502Z,3.87
2018-09-07T18:04:06.594Z,4.33
2018-09-07T18:06:34.682Z,3.77
2018-09-07T18:09:02.821Z,3.80
2018-09-07T18:11:30.905Z,3.10
2018-09-07T18:13:58.986Z,3.40
2018-09-07T18:16:27.096Z,3.57
2018-09-07T18:18:55.166Z,3.97
2018-09-07T18:21:23.267Z,3.93
2018-09-07T18:23:51.367Z,4.77
2018-09-07T18:26:19.466Z,3.90
2018-09-07T18:28:47.551Z,3.53
2018-09-07T18:31:15.635Z,4.37
2018-09-07T18:33:43.750Z,4.03
2018-09-07T18:36:12.246Z,3.90
2018-09-07T18:38:39.947Z,3.83
2018-09-07T18:41:08.293Z,3.80
2018-09-07T18:43:36.428Z,3.97
2018-09-07T18:46:04.495Z,3.90
2018-09-07T18:48:32.588Z,3.60
2018-09-07T18:51:00.681Z,3.73
2018-09-07T18:53:28.781Z,3.00
2018-09-07T18:55:56.866Z,3.80
2018-09-07T18:58:24.966Z,3.50
2018-09-07T19:00:53.051Z,3.40
2018-09-07T19:03:21.214Z,5.43
2018-09-07T19:05:49.310Z,3.40
2018-09-07T19:08:17.415Z,3.70
2018-09-07T19:10:45.499Z,3.03
2018-09-07T19:13:13.627Z,6.27
2018-09-07T19:15:41.774Z,3.70
2018-09-07T19:18:09.807Z,3.37
2018-09-07T19:20:38.015Z,5.53
2018-09-07T19:23:06.179Z,3.30
2018-09-07T19:25:35.035Z,2.80
2018-09-07T19:28:03.132Z,3.43
2018-09-07T19:30:31.549Z,4.23
2018-09-07T19:32:59.638Z,3.00
2018-09-07T19:35:27.796Z,3.00
2018-09-07T19:37:55.819Z,2.83
2018-09-07T19:40:23.914Z,3.03
2018-09-07T19:42:52.177Z,2.77
2018-09-07T19:45:20.278Z,2.90
2018-09-07T19:47:48.360Z,2.80
2018-09-07T19:50:16.437Z,2.80
2018-09-07T19:52:44.534Z,3.47
2018-09-07T19:55:12.627Z,3.17
2018-09-07T19:57:40.919Z,5.43
2018-09-07T20:00:09.010Z,2.80
2018-09-07T20:02:37.111Z,3.13
2018-09-07T20:05:05.414Z,2.73
2018-09-07T20:07:33.520Z,2.70
2018-09-07T20:10:01.625Z,3.20
2018-09-07T20:12:29.693Z,2.67
2018-09-07T20:14:57.799Z,2.93
2018-09-07T20:17:25.886Z,3.43
2018-09-07T20:19:53.958Z,2.60
2018-09-07T20:22:22.041Z,4.80
2018-09-07T20:24:50.138Z,2.43
2018-09-07T20:27:18.380Z,2.60
2018-09-07T20:29:46.478Z,4.60
2018-09-07T20:32:14.586Z,4.50
2018-09-07T20:34:42.667Z,3.80
2018-09-07T20:37:10.755Z,2.37
2018-09-07T20:39:38.848Z,3.03
2018-09-07T20:42:06.927Z,3.80
2018-09-07T20:44:35.170Z,3.87
2018-09-07T20:47:03.471Z,3.00
2018-09-07T20:49:31.694Z,3.23
2018-09-07T20:51:59.787Z,3.10
2018-09-07T20:54:28.074Z,3.33
2018-09-07T20:56:56.370Z,3.27
2018-09-07T20:59:24.487Z,2.73
2018-09-07T21:01:52.570Z,3.47
2018-09-07T21:04:20.661Z,5.90
2018-09-07T21:06:48.734Z,3.13
2018-09-07T21:09:16.853Z,3.13
2018-09-07T21:11:44.976Z,3.20
2018-09-07T21:14:13.349Z,5.43
2018-09-07T21:16:41.563Z,4.07
2018-09-07T21:19:09.750Z,3.57
2018-09-07T21:21:38.022Z,3.57
2018-09-07T21:24:06.130Z,3.60
2018-09-07T21:26:34.242Z,3.40
2018-09-07T21:29:02.482Z,3.87
2018-09-07T21:31:31.054Z,3.50
2018-09-07T21:33:59.263Z,3.60
2018-09-07T21:36:27.717Z,4.90
2018-09-07T21:38:55.921Z,4.17
2018-09-07T21:41:24.346Z,3.67
2018-09-07T21:43:52.669Z,4.90
2018-09-07T21:46:20.918Z,3.80
2018-09-07T21:48:49.266Z,4.60
2018-09-07T21:51:17.671Z,4.03
2018-09-07T21:53:46.321Z,4.67
2018-09-07T21:56:15.511Z,5.30
2018-09-07T21:58:43.811Z,4.50
2018-09-07T22:01:13.893Z,4.40
2018-09-07T22:03:42.794Z,4.43
2018-09-07T22:06:12.080Z,4.07
2018-09-07T22:08:41.085Z,4.60
2018-09-07T22:11:09.843Z,5.43
2018-09-07T22:13:38.243Z,5.00
2018-09-07T22:16:07.582Z,4.67
2018-09-07T22:18:36.008Z,5.10
2018-09-07T22:21:04.325Z,5.80
2018-09-07T22:23:32.940Z,5.37
2018-09-07T22:26:01.581Z,5.50
2018-09-07T22:28:30.230Z,4.90
2018-09-07T22:30:58.586Z,5.33
2018-09-07T22:33:26.865Z,5.87
2018-09-07T22:35:55.628Z,5.13
2018-09-07T22:38:23.806Z,4.53
2018-09-07T22:40:52.632Z,4.93
2018-09-07T22:43:20.702Z,4.90
2018-09-07T22:45:48.793Z,4.27
2018-09-07T22:48:16.870Z,5.00
2018-09-07T22:50:44.960Z,4.30
2018-09-07T22:53:13.043Z,5.20
2018-09-07T22:55:41.169Z,4.30
2018-09-07T22:58:09.234Z,4.87
2018-09-07T23:00:37.326Z,5.20
2018-09-07T23:03:05.439Z,6.03
2018-09-07T23:05:33.534Z,5.10
2018-09-07T23:08:01.793Z,5.60
2018-09-07T23:10:29.882Z,5.17
2018-09-07T23:12:57.974Z,5.20
2018-09-07T23:15:26.079Z,5.33
2018-09-07T23:17:54.172Z,5.83
2018-09-07T23:20:22.270Z,4.70
2018-09-07T23:22:50.393Z,5.43
2018-09-07T23:25:18.486Z,6.13
2018-09-07T23:27:46.570Z,5.63
2018-09-07T23:30:14.667Z,5.63
2018-09-07T23:32:42.754Z,5.30
2018-09-07T23:35:10.846Z,5.53
2018-09-07T23:37:39.034Z,6.00
2018-09-07T23:40:07.154Z,5.37
2018-09-07T23:42:35.218Z,5.67
2018-09-07T23:45:03.318Z,5.80
2018-09-07T23:47:31.410Z,6.10
2018-09-07T23:49:59.520Z,6.30
2018-09-07T23:52:27.595Z,6.97
2018-09-07T23:54:55.694Z,6.43
2018-09-07T23:57:23.795Z,5.87
2018-09-07T23:59:51.887Z,6.90
